Saint-Moise, Canada
Current Conditions -  °F | °C
As of 9:00 AM on Thursday 18 Dec 2014 (Local Time) from CYYY Reporting Station
Light Snow Light Snow  
Wind Chill: 12°   Ceiling: 600
Heat Index: 27°   Visibility: 1mi
Dew Point: 25°   Wind: 22mph
Humidity: 93%   Direction: 20°NNE
Pressure: 29.75"   Gusts: 29mph
Location:  48.53°N, 67.85°W
Report Text: CYYY 181400Z 02019G25KT 1SM R06/P6000FT/U -SN DRSN VV006 M03/M04 A2975 RMK SN8 SLP078
Loading
Personal Weather Stations






























Interactive Weather Map New forecast layout! Learn more

10-Day Weather Forecast

Advertisements
Track Severe Weather on mobile